Time;durP1;ratioP1;P1;durP2;ratioP2;P2;SDS_P1;SDS_P2;PMS_P1;PMS_P2;Temp;Humidity;BMP_temperature;BMP_pressure;BME280_temperature;BME280_humidity;BME280_pressure;Samples;Min_cycle;Max_cycle;Signal;HPM_P1;HPM_P2
2024/01/01 00:00:22;;;;;;;79.67;42.30;;;;;;;6.81;100.00;99898.97;5104862;28;20490;-64
2024/01/01 00:02:49;;;;;;;77.53;35.90;;;;;;;6.87;100.00;99898.94;5100810;28;20516;-64
2024/01/01 00:05:16;;;;;;;72.20;34.97;;;;;;;6.90;100.00;99898.31;5086208;28;20964;-67
2024/01/01 00:07:45;;;;;;;59.50;35.20;;;;;;;6.89;100.00;99894.03;5101516;28;20524;-67
2024/01/01 00:10:11;;;;;;;60.07;31.43;;;;;;;6.90;100.00;99896.41;5095620;28;20440;-66
2024/01/01 00:12:38;;;;;;;51.67;26.80;;;;;;;6.87;100.00;99885.47;5099756;28;20495;-64
2024/01/01 00:15:05;;;;;;;49.90;27.07;;;;;;;6.86;100.00;99883.84;5101171;28;20964;-63
2024/01/01 00:17:31;;;;;;;44.53;24.30;;;;;;;6.88;100.00;99887.06;5107729;28;20515;-64
2024/01/01 00:19:59;;;;;;;41.30;22.77;;;;;;;6.88;100.00;99882.47;5103293;28;20527;-64
2024/01/01 00:22:25;;;;;;;43.33;24.47;;;;;;;6.89;100.00;99885.97;5094453;28;20281;-64
2024/01/01 00:24:53;;;;;;;40.47;22.77;;;;;;;6.89;100.00;99884.06;5104403;28;20451;-63
2024/01/01 00:27:20;;;;;;;42.77;25.10;;;;;;;6.88;100.00;99878.97;5105981;28;20439;-63
2024/01/01 00:29:47;;;;;;;44.90;20.40;;;;;;;6.86;100.00;99884.63;5094035;28;20433;-63
2024/01/01 00:32:13;;;;;;;39.23;18.03;;;;;;;6.91;100.00;99881.91;5100257;28;20569;-63
2024/01/01 00:34:40;;;;;;;27.17;15.20;;;;;;;6.92;100.00;99878.09;5103581;28;21049;-63
2024/01/01 00:37:07;;;;;;;31.83;17.67;;;;;;;6.90;100.00;99880.28;5094321;28;20445;-63
2024/01/01 00:39:33;;;;;;;31.90;18.00;;;;;;;6.86;99.79;99878.47;5093923;28;20930;-63
2024/01/01 00:42:01;;;;;;;35.63;18.87;;;;;;;6.78;99.44;99880.75;5093916;28;20824;-63
2024/01/01 00:44:28;;;;;;;41.80;22.63;;;;;;;6.77;99.19;99878.31;5100311;28;20455;-63
2024/01/01 00:46:55;;;;;;;38.43;18.93;;;;;;;6.71;99.41;99882.19;5094575;28;20945;-63
2024/01/01 00:49:21;;;;;;;29.60;16.73;;;;;;;6.65;99.36;99883.38;5093846;28;20433;-63
2024/01/01 00:51:48;;;;;;;43.37;19.50;;;;;;;6.64;99.31;99884.44;5094240;28;20464;-63
2024/01/01 00:54:14;;;;;;;39.87;17.30;;;;;;;6.58;99.31;99889.91;5097604;28;20896;-63
2024/01/01 00:56:41;;;;;;;31.87;16.10;;;;;;;6.61;99.99;99893.13;5073866;28;20433;-63
2024/01/01 00:59:09;;;;;;;40.30;16.17;;;;;;;6.55;99.91;99890.50;5086883;28;20863;-63
2024/01/01 01:01:37;;;;;;;29.93;15.80;;;;;;;6.56;100.00;99897.47;5101012;28;20869;-63
2024/01/01 01:04:04;;;;;;;37.93;17.33;;;;;;;6.61;99.75;99898.50;5093378;28;20441;-63
2024/01/01 01:06:31;;;;;;;40.43;20.03;;;;;;;6.54;99.75;99890.78;5093873;28;20465;-63
2024/01/01 01:08:58;;;;;;;59.17;23.00;;;;;;;6.52;100.00;99888.41;5094021;28;20440;-63
2024/01/01 01:11:24;;;;;;;50.30;27.10;;;;;;;6.53;100.00;99894.56;5096342;28;20523;-63
2024/01/01 01:13:51;;;;;;;23.10;12.73;;;;;;;6.53;100.00;99898.06;5096046;28;20515;-63
2024/01/01 01:16:19;;;;;;;46.73;17.20;;;;;;;6.53;100.00;99897.25;5099375;28;20949;-64
2024/01/01 01:18:45;;;;;;;25.20;13.40;;;;;;;6.53;100.00;99902.63;5098134;28;20523;-64
2024/01/01 01:21:13;;;;;;;25.33;13.70;;;;;;;6.54;100.00;99898.84;5097567;28;20462;-65
2024/01/01 01:23:39;;;;;;;21.60;9.37;;;;;;;6.52;100.00;99899.16;5097736;28;20937;-64
2024/01/01 01:26:06;;;;;;;18.80;9.80;;;;;;;6.48;100.00;99905.41;5097047;28;20813;-64
2024/01/01 01:28:33;;;;;;;14.27;9.40;;;;;;;6.39;100.00;99886.44;5108812;28;20428;-64
2024/01/01 01:30:59;;;;;;;21.00;8.90;;;;;;;6.38;100.00;99889.41;5097670;28;20527;-64
2024/01/01 01:33:27;;;;;;;14.53;7.00;;;;;;;6.28;100.00;99891.13;5102696;28;21051;-64
2024/01/01 01:35:54;;;;;;;16.90;8.73;;;;;;;6.27;100.00;99894.13;5100248;28;20539;-64
2024/01/01 01:38:21;;;;;;;15.97;7.50;;;;;;;6.26;100.00;99898.69;5096141;28;20523;-64
2024/01/01 01:40:49;;;;;;;21.90;8.40;;;;;;;6.25;100.00;99899.78;5095617;28;20463;-64
2024/01/01 01:43:22;;;;;;;18.17;8.40;;;;;;;6.22;100.00;99903.03;5095899;28;20480;-63
2024/01/01 01:45:50;;;;;;;19.53;8.17;;;;;;;6.21;100.00;99896.06;5094290;28;20561;-64
2024/01/01 01:48:18;;;;;;;11.10;7.27;;;;;;;6.13;100.00;99894.03;5093900;28;20538;-64
2024/01/01 01:50:47;;;;;;;10.47;6.60;;;;;;;6.07;100.00;99885.22;5095331;28;21251;-63
2024/01/01 01:53:14;;;;;;;14.53;5.70;;;;;;;6.06;100.00;99883.63;5096306;28;21026;-64
2024/01/01 01:55:44;;;;;;;9.23;5.20;;;;;;;6.03;100.00;99880.72;5098818;28;20479;-65
2024/01/01 01:58:11;;;;;;;12.50;6.37;;;;;;;5.95;100.00;99879.47;5095882;28;20464;-64
2024/01/01 02:00:38;;;;;;;13.60;7.17;;;;;;;5.91;100.00;99875.72;5096853;28;20456;-63
2024/01/01 02:03:07;;;;;;;14.63;7.33;;;;;;;5.91;100.00;99875.72;5095976;27;20511;-63
2024/01/01 02:05:34;;;;;;;18.83;7.90;;;;;;;5.91;100.00;99869.53;5095466;28;20531;-63
2024/01/01 02:08:02;;;;;;;12.80;5.77;;;;;;;5.93;100.00;99867.38;5095363;28;20436;-63
2024/01/01 02:10:29;;;;;;;12.33;5.87;;;;;;;5.89;100.00;99860.97;5095193;28;20466;-63
2024/01/01 02:12:56;;;;;;;10.00;5.53;;;;;;;5.85;100.00;99860.75;5094248;28;20900;-63
2024/01/01 02:15:22;;;;;;;10.20;5.60;;;;;;;5.83;100.00;99866.41;5093610;28;20465;-63
2024/01/01 02:17:50;;;;;;;15.13;6.93;;;;;;;5.76;100.00;99871.34;5095689;28;20437;-63
2024/01/01 02:20:16;;;;;;;15.53;6.20;;;;;;;5.76;100.00;99873.22;5104772;28;20863;-64
2024/01/01 02:22:44;;;;;;;9.80;5.53;;;;;;;5.70;100.00;99869.78;5099545;28;20464;-63
2024/01/01 02:25:13;;;;;;;13.47;4.87;;;;;;;5.60;100.00;99867.22;5095732;28;20452;-63
2024/01/01 02:27:40;;;;;;;10.07;4.93;;;;;;;5.61;100.00;99860.75;5096001;28;20440;-63
2024/01/01 02:30:10;;;;;;;18.20;5.20;;;;;;;5.55;100.00;99864.59;5096170;28;20948;-63
2024/01/01 02:32:37;;;;;;;13.03;5.80;;;;;;;5.47;100.00;99866.00;5112196;28;20442;-63
2024/01/01 02:35:07;;;;;;;10.37;4.37;;;;;;;5.46;100.00;99874.34;5102679;28;20461;-63
2024/01/01 02:37:33;;;;;;;6.67;3.67;;;;;;;5.42;100.00;99874.09;5102038;28;20461;-63
2024/01/01 02:40:00;;;;;;;9.60;4.87;;;;;;;5.37;100.00;99871.47;5096111;28;20433;-63
2024/01/01 02:42:29;;;;;;;12.50;5.37;;;;;;;5.36;100.00;99872.56;5095649;28;20432;-64
2024/01/01 02:44:56;;;;;;;7.20;3.97;;;;;;;5.36;100.00;99880.63;5106205;28;20449;-64
2024/01/01 02:47:22;;;;;;;8.87;5.00;;;;;;;5.36;100.00;99863.69;5099314;28;20436;-64
2024/01/01 02:49:49;;;;;;;9.10;5.47;;;;;;;5.34;100.00;99863.19;5104743;28;20440;-64
2024/01/01 02:52:16;;;;;;;8.20;4.90;;;;;;;5.41;100.00;99869.03;5095577;28;20490;-64
2024/01/01 02:54:42;;;;;;;9.33;3.97;;;;;;;5.48;100.00;99856.84;5106394;28;20508;-64
2024/01/01 02:57:09;;;;;;;9.33;4.27;;;;;;;5.54;100.00;99861.09;5101681;28;20431;-64
2024/01/01 02:59:37;;;;;;;8.40;3.40;;;;;;;5.50;100.00;99870.00;5100456;28;20523;-64
2024/01/01 03:02:03;;;;;;;4.83;3.53;;;;;;;5.45;100.00;99872.75;5098573;28;20437;-64
2024/01/01 03:04:31;;;;;;;8.20;5.57;;;;;;;5.44;100.00;99868.44;5094530;28;20452;-64
2024/01/01 03:06:58;;;;;;;11.17;3.80;;;;;;;5.50;100.00;99870.81;5095638;28;20502;-64
2024/01/01 03:09:25;;;;;;;4.53;2.80;;;;;;;5.49;100.00;99866.53;5095303;28;20910;-63
2024/01/01 03:11:51;;;;;;;9.30;4.03;;;;;;;5.51;100.00;99869.72;5094684;28;20859;-63
2024/01/01 03:14:18;;;;;;;8.70;2.80;;;;;;;5.52;100.00;99867.81;5095054;28;20546;-63
2024/01/01 03:16:46;;;;;;;4.70;2.30;;;;;;;5.50;100.00;99865.44;5100889;28;20433;-63
2024/01/01 03:19:12;;;;;;;8.57;3.20;;;;;;;5.48;100.00;99862.22;5095248;28;20437;-63
2024/01/01 03:21:39;;;;;;;11.07;3.77;;;;;;;5.46;100.00;99868.97;5094881;28;20799;-64
2024/01/01 03:24:06;;;;;;;10.80;2.50;;;;;;;5.48;100.00;99872.16;5095226;28;20474;-64
2024/01/01 03:26:32;;;;;;;4.90;3.40;;;;;;;5.46;100.00;99863.59;5095071;28;20868;-64
2024/01/01 03:28:59;;;;;;;5.60;3.57;;;;;;;5.45;100.00;99862.81;5098927;28;20480;-64
2024/01/01 03:31:25;;;;;;;6.10;3.33;;;;;;;5.41;100.00;99855.59;5103315;28;20468;-64
2024/01/01 03:33:53;;;;;;;6.40;3.40;;;;;;;5.44;100.00;99860.38;5095315;28;20480;-64
2024/01/01 03:36:20;;;;;;;10.13;4.97;;;;;;;5.46;100.00;99859.03;5106783;28;20441;-64
2024/01/01 03:38:47;;;;;;;7.20;4.10;;;;;;;5.43;100.00;99862.28;5101221;28;20431;-64
2024/01/01 03:41:13;;;;;;;5.73;2.00;;;;;;;5.34;100.00;99860.50;5101146;28;20519;-64
2024/01/01 03:43:40;;;;;;;8.00;3.37;;;;;;;5.33;100.00;99865.06;5098122;28;20516;-64
2024/01/01 03:46:06;;;;;;;6.27;2.40;;;;;;;5.32;100.00;99866.16;5099359;28;20860;-64
2024/01/01 03:48:33;;;;;;;9.57;3.67;;;;;;;5.26;100.00;99854.66;5101137;28;20436;-63
2024/01/01 03:51:02;;;;;;;4.03;2.77;;;;;;;5.21;100.00;99856.59;5107299;28;20453;-63
2024/01/01 03:53:29;;;;;;;7.03;3.50;;;;;;;5.22;100.00;99858.19;5094632;28;20519;-63
2024/01/01 03:55:55;;;;;;;7.93;4.07;;;;;;;5.20;100.00;99855.78;5094448;28;20516;-63
2024/01/01 03:58:22;;;;;;;4.03;2.03;;;;;;;5.12;100.00;99859.09;5110748;22;20589;-71
2024/01/01 04:00:48;;;;;;;8.37;3.00;;;;;;;5.04;100.00;99857.00;5082898;28;20431;-71
2024/01/01 04:03:15;;;;;;;6.10;2.97;;;;;;;5.01;100.00;99857.59;5080727;28;20437;-71
2024/01/01 04:05:42;;;;;;;7.00;3.63;;;;;;;4.99;100.00;99863.22;5076870;28;20493;-73
2024/01/01 04:08:10;;;;;;;2.93;1.87;;;;;;;4.97;100.00;99864.59;5081759;28;20531;-72
2024/01/01 04:10:36;;;;;;;4.43;3.30;;;;;;;4.95;100.00;99862.19;5074310;28;20790;-74
2024/01/01 04:13:03;;;;;;;6.00;2.93;;;;;;;4.99;100.00;99865.13;5074133;28;20528;-73
2024/01/01 04:15:30;;;;;;;5.03;3.33;;;;;;;5.00;100.00;99862.16;5078741;28;20542;-73
2024/01/01 04:17:56;;;;;;;6.43;3.83;;;;;;;5.02;100.00;99859.19;5076659;28;20433;-73
2024/01/01 04:20:23;;;;;;;11.40;3.63;;;;;;;5.09;100.00;99864.22;5076889;28;20532;-73
2024/01/01 04:22:51;;;;;;;5.70;2.93;;;;;;;5.13;100.00;99863.38;5081532;28;20991;-73
2024/01/01 04:25:19;;;;;;;5.23;3.20;;;;;;;5.20;100.00;99863.06;5073771;28;20454;-73
2024/01/01 04:27:46;;;;;;;4.23;2.87;;;;;;;5.28;100.00;99857.88;5074107;28;20528;-74
2024/01/01 04:30:13;;;;;;;7.10;3.97;;;;;;;5.37;100.00;99855.38;5073947;28;20529;-74
2024/01/01 04:32:40;;;;;;;4.73;3.17;;;;;;;5.45;100.00;99862.81;5077746;28;20440;-73
2024/01/01 04:35:07;;;;;;;8.67;4.30;;;;;;;5.53;100.00;99851.44;5087575;28;20488;-73
2024/01/01 04:37:34;;;;;;;5.83;3.33;;;;;;;5.64;100.00;99857.50;5073484;28;20483;-73
2024/01/01 04:40:00;;;;;;;6.53;3.70;;;;;;;5.68;100.00;99855.84;5073634;28;20520;-73
2024/01/01 04:42:28;;;;;;;6.00;4.00;;;;;;;5.77;100.00;99859.50;5073613;28;20525;-74
2024/01/01 04:44:55;;;;;;;9.47;3.27;;;;;;;5.80;100.00;99848.19;5072815;28;20477;-73
2024/01/01 04:47:22;;;;;;;7.50;2.93;;;;;;;5.82;100.00;99851.38;5073085;28;20701;-74
2024/01/01 04:49:49;;;;;;;3.90;2.33;;;;;;;5.90;100.00;99851.81;5079042;28;20523;-73
2024/01/01 04:52:15;;;;;;;6.37;3.10;;;;;;;5.95;100.00;99859.84;5078683;28;20953;-73
2024/01/01 04:54:42;;;;;;;8.90;4.13;;;;;;;5.97;100.00;99844.22;5088748;28;20484;-73
2024/01/01 04:57:08;;;;;;;5.93;3.20;;;;;;;6.05;100.00;99849.75;5074655;28;20995;-73
2024/01/01 04:59:36;;;;;;;4.00;2.03;;;;;;;6.13;100.00;99851.00;5079635;28;20863;-73
2024/01/01 05:02:03;;;;;;;4.10;2.50;;;;;;;6.17;100.00;99848.53;5083543;28;20445;-73
2024/01/01 05:04:29;;;;;;;5.97;2.53;;;;;;;6.24;100.00;99847.09;5082237;28;20506;-74
2024/01/01 05:06:56;;;;;;;5.80;2.43;;;;;;;6.24;99.54;99846.28;5083100;28;20528;-74
2024/01/01 05:09:23;;;;;;;5.87;2.77;;;;;;;6.35;99.44;99841.56;5081212;28;20520;-74
2024/01/01 05:11:49;;;;;;;4.10;2.33;;;;;;;6.42;99.07;99839.31;5073250;28;20434;-74
2024/01/01 05:14:16;;;;;;;8.33;3.50;;;;;;;6.45;99.40;99846.78;5079937;28;21009;-74
2024/01/01 05:16:47;;;;;;;7.80;2.73;;;;;;;6.51;99.53;99845.66;5073495;28;20473;-74
2024/01/01 05:19:13;;;;;;;5.50;3.57;;;;;;;6.50;99.78;99839.44;5073058;28;20417;-74
2024/01/01 05:21:40;;;;;;;5.03;2.87;;;;;;;6.52;100.00;99848.03;5073466;28;20778;-74
2024/01/01 05:24:07;;;;;;;8.50;3.67;;;;;;;6.55;100.00;99849.31;5072230;28;20533;-74
2024/01/01 05:26:33;;;;;;;7.60;2.90;;;;;;;6.58;100.00;99840.69;5092170;28;20491;-74
2024/01/01 05:29:00;;;;;;;4.23;2.23;;;;;;;6.64;99.36;99836.84;5074570;28;20437;-74
2024/01/01 05:31:27;;;;;;;7.70;2.77;;;;;;;6.67;98.60;99836.22;5073044;28;20437;-74
2024/01/01 05:33:55;;;;;;;4.10;2.43;;;;;;;6.67;99.28;99849.69;5072894;28;20513;-74
2024/01/01 05:36:21;;;;;;;6.37;2.07;;;;;;;6.69;98.92;99842.13;5072862;28;20544;-74
2024/01/01 05:38:48;;;;;;;4.73;2.03;;;;;;;6.65;100.00;99845.72;5073371;28;20506;-74
2024/01/01 05:41:14;;;;;;;5.00;2.80;;;;;;;6.66;100.00;99848.09;5072903;28;20935;-74
2024/01/01 05:43:41;;;;;;;7.30;3.80;;;;;;;6.60;100.00;99851.13;5072461;28;20468;-74
2024/01/01 05:46:08;;;;;;;8.30;2.80;;;;;;;6.58;100.00;99844.16;5072650;28;20948;-73
2024/01/01 05:48:34;;;;;;;4.90;2.53;;;;;;;6.50;100.00;99846.72;5072791;28;20524;-74
2024/01/01 05:51:02;;;;;;;5.63;2.83;;;;;;;6.46;100.00;99843.00;5073017;28;20463;-73
2024/01/01 05:53:29;;;;;;;4.27;2.30;;;;;;;6.44;100.00;99845.22;5073090;28;20520;-73
2024/01/01 05:55:55;;;;;;;6.83;3.00;;;;;;;6.45;100.00;99841.41;5072850;28;20568;-74
2024/01/01 05:58:22;;;;;;;4.30;2.13;;;;;;;6.41;100.00;99843.88;5073349;28;20476;-74
2024/01/01 06:00:49;;;;;;;7.47;2.10;;;;;;;6.38;100.00;99843.69;5076705;28;20496;-74
2024/01/01 06:03:15;;;;;;;11.23;4.00;;;;;;;6.37;100.00;99847.44;5083377;28;20440;-74
2024/01/01 06:05:42;;;;;;;7.17;2.50;;;;;;;6.30;100.00;99851.31;5083094;28;20539;-74
2024/01/01 06:08:10;;;;;;;5.33;2.53;;;;;;;6.29;100.00;99852.41;5076033;28;20524;-74
2024/01/01 06:10:37;;;;;;;3.87;1.83;;;;;;;6.26;100.00;99852.19;5075984;28;20469;-74
2024/01/01 06:13:04;;;;;;;6.00;2.80;;;;;;;6.21;100.00;99852.25;5076239;28;20619;-74
2024/01/01 06:15:31;;;;;;;6.43;2.50;;;;;;;6.17;100.00;99856.63;5056252;28;20500;-73
2024/01/01 06:17:57;;;;;;;7.67;3.27;;;;;;;6.15;100.00;99862.25;5074483;28;20516;-74
2024/01/01 06:20:24;;;;;;;5.60;2.90;;;;;;;6.11;100.00;99852.38;5075864;28;20469;-73
2024/01/01 06:22:51;;;;;;;3.77;2.00;;;;;;;6.12;100.00;99848.63;5089417;28;20434;-73
2024/01/01 06:25:19;;;;;;;8.10;3.53;;;;;;;6.08;100.00;99845.69;5076209;28;20453;-71
2024/01/01 06:27:45;;;;;;;5.70;2.47;;;;;;;6.02;100.00;99844.97;5076379;28;20529;-74
2024/01/01 06:30:12;;;;;;;2.60;1.50;;;;;;;6.07;100.00;99850.28;5075732;28;20440;-74
2024/01/01 06:32:39;;;;;;;6.80;3.03;;;;;;;6.09;100.00;99844.59;5076243;28;20474;-74
2024/01/01 06:35:06;;;;;;;5.53;2.70;;;;;;;6.08;100.00;99853.78;5075647;28;20520;-73
2024/01/01 06:37:32;;;;;;;3.90;2.13;;;;;;;6.06;100.00;99842.50;5075528;28;20441;-74
2024/01/01 06:39:59;;;;;;;5.60;2.50;;;;;;;6.04;100.00;99844.69;5075838;28;20468;-74
2024/01/01 06:42:27;;;;;;;4.03;2.13;;;;;;;6.02;100.00;99852.22;5075127;28;20472;-74
2024/01/01 06:44:57;;;;;;;5.30;1.90;;;;;;;6.10;100.00;99845.41;5075782;28;20487;-73
2024/01/01 06:47:24;;;;;;;4.77;2.07;;;;;;;6.05;100.00;99848.97;5074892;28;20468;-73
2024/01/01 06:49:50;;;;;;;4.10;2.50;;;;;;;6.05;100.00;99844.38;5080709;28;20846;-73
2024/01/01 06:52:17;;;;;;;4.47;2.43;;;;;;;6.09;100.00;99844.59;5075439;28;20442;-73
2024/01/01 06:54:43;;;;;;;4.13;2.50;;;;;;;6.10;100.00;99853.47;5089450;28;20568;-73
2024/01/01 06:57:10;;;;;;;5.13;2.53;;;;;;;6.07;100.00;99844.91;5074516;28;20429;-74
2024/01/01 06:59:38;;;;;;;4.30;2.30;;;;;;;6.06;100.00;99854.06;5076146;28;20544;-74
2024/01/01 07:02:05;;;;;;;6.00;2.67;;;;;;;6.08;100.00;99856.47;5090246;28;20523;-75
2024/01/01 07:04:31;;;;;;;3.70;1.80;;;;;;;6.09;100.00;99862.63;5087119;28;20536;-72
2024/01/01 07:06:58;;;;;;;4.03;1.77;;;;;;;6.11;100.00;99865.81;5082337;28;20528;-71
2024/01/01 07:09:24;;;;;;;5.33;1.90;;;;;;;6.10;100.00;99867.72;5093288;28;20871;-75
2024/01/01 07:11:51;;;;;;;5.20;2.00;;;;;;;6.05;100.00;99873.94;5076590;28;20429;-75
2024/01/01 07:14:18;;;;;;;3.93;1.40;;;;;;;6.08;100.00;99869.91;5077059;28;20468;-74
2024/01/01 07:16:46;;;;;;;4.13;1.70;;;;;;;6.11;100.00;99866.66;5080567;28;20477;-76
2024/01/01 07:19:13;;;;;;;6.50;1.80;;;;;;;6.11;100.00;99874.72;5081938;28;20430;-75
2024/01/01 07:21:41;;;;;;;3.30;1.40;;;;;;;6.06;100.00;99867.50;5075199;28;20945;-74
2024/01/01 07:24:07;;;;;;;5.30;2.43;;;;;;;6.01;100.00;99874.81;5057414;28;20956;-75
2024/01/01 07:26:34;;;;;;;4.03;1.60;;;;;;;5.92;100.00;99871.97;5087393;28;20439;-73
2024/01/01 07:29:01;;;;;;;3.00;1.03;;;;;;;5.93;100.00;99867.38;5081285;28;20511;-73
2024/01/01 07:31:27;;;;;;;5.47;1.97;;;;;;;5.83;100.00;99863.72;5076888;28;20437;-73
2024/01/01 07:33:55;;;;;;;2.57;1.40;;;;;;;5.85;100.00;99868.03;5082698;28;20536;-73
2024/01/01 07:36:22;;;;;;;3.43;1.20;;;;;;;5.78;100.00;99871.84;5074329;28;20886;-73
2024/01/01 07:38:48;;;;;;;3.67;1.50;;;;;;;5.72;100.00;99874.88;5074327;28;20456;-73
2024/01/01 07:41:15;;;;;;;3.73;1.33;;;;;;;5.66;100.00;99868.75;5074125;28;20925;-73
2024/01/01 07:43:42;;;;;;;2.87;1.20;;;;;;;5.56;100.00;99875.03;5078075;28;20865;-73
2024/01/01 07:46:10;;;;;;;2.43;1.00;;;;;;;5.52;100.00;99870.50;5078980;28;20529;-73
2024/01/01 07:48:36;;;;;;;4.03;2.50;;;;;;;5.50;100.00;99886.94;5077538;28;20438;-73
2024/01/01 07:51:05;;;;;;;4.50;1.67;;;;;;;5.52;100.00;99874.00;5082451;28;20804;-73
2024/01/01 07:53:32;;;;;;;3.23;1.00;;;;;;;5.50;100.00;99881.56;5085784;28;20786;-73
2024/01/01 07:56:01;;;;;;;4.73;1.97;;;;;;;5.55;100.00;99883.38;5077513;28;20485;-73
2024/01/01 07:58:29;;;;;;;2.87;1.10;;;;;;;5.63;100.00;99885.44;5078958;28;20442;-73
2024/01/01 08:00:56;;;;;;;2.07;1.00;;;;;;;5.73;100.00;99887.22;5074842;28;20845;-73
2024/01/01 08:03:23;;;;;;;3.13;1.27;;;;;;;5.80;100.00;99879.63;5073721;28;21078;-74
2024/01/01 08:05:50;;;;;;;5.13;1.50;;;;;;;5.83;100.00;99890.56;5074172;28;20529;-73
2024/01/01 08:08:18;;;;;;;2.50;1.27;;;;;;;5.87;100.00;99893.50;5076813;28;20525;-73
2024/01/01 08:10:45;;;;;;;3.40;1.40;;;;;;;5.94;100.00;99895.88;5079665;28;20430;-73
2024/01/01 08:13:12;;;;;;;2.57;1.20;;;;;;;6.07;100.00;99896.00;5082724;28;20520;-73
2024/01/01 08:15:38;;;;;;;2.20;0.70;;;;;;;6.20;100.00;99891.78;5081163;28;20563;-73
2024/01/01 08:18:06;;;;;;;2.77;1.50;;;;;;;6.36;100.00;99891.56;5081684;28;20429;-73
2024/01/01 08:20:32;;;;;;;2.40;0.90;;;;;;;6.50;100.00;99893.25;5079436;28;20448;-73
2024/01/01 08:22:59;;;;;;;3.00;1.40;;;;;;;6.62;100.00;99897.41;5083615;28;20529;-73
2024/01/01 08:25:27;;;;;;;2.30;1.00;;;;;;;6.70;100.00;99891.38;5076766;28;21001;-73
2024/01/01 08:27:54;;;;;;;3.13;1.00;;;;;;;6.81;100.00;99895.50;5078693;28;20897;-73
2024/01/01 08:30:20;;;;;;;2.40;0.83;;;;;;;6.91;100.00;99898.03;5080175;28;20519;-73
2024/01/01 08:32:47;;;;;;;1.80;0.60;;;;;;;7.01;100.00;99905.16;5081702;28;20512;-73
2024/01/01 08:35:13;;;;;;;3.37;1.30;;;;;;;7.13;100.00;99905.50;5079380;28;20481;-73
2024/01/01 08:37:40;;;;;;;2.40;1.23;;;;;;;7.22;100.00;99909.13;5076883;28;20528;-73
2024/01/01 08:40:13;;;;;;;3.37;1.50;;;;;;;7.32;100.00;99898.16;5074157;28;20450;-73
2024/01/01 08:42:41;;;;;;;7.70;1.50;;;;;;;7.50;97.86;99901.09;5079828;28;20455;-72
2024/01/01 08:45:51;;;;;;;2.60;1.07;;;;;;;7.64;96.15;99899.19;5081022;28;20533;-73
2024/01/01 08:48:17;;;;;;;2.80;1.10;;;;;;;7.73;94.89;99902.81;5073514;28;20425;-73
2024/01/01 08:50:44;;;;;;;3.23;1.47;;;;;;;7.79;94.78;99907.00;5073577;28;20969;-73
2024/01/01 08:53:10;;;;;;;2.53;1.17;;;;;;;7.83;94.10;99908.03;5073575;28;20434;-73
2024/01/01 08:55:37;;;;;;;2.67;1.00;;;;;;;7.84;94.71;99915.00;5073322;28;20520;-73
2024/01/01 08:58:06;;;;;;;2.27;0.63;;;;;;;7.92;93.89;99918.09;5073100;28;20528;-73
2024/01/01 09:00:33;;;;;;;5.23;1.40;;;;;;;7.98;93.41;99925.00;5073452;28;20823;-74
2024/01/01 09:02:59;;;;;;;2.37;1.13;;;;;;;8.02;93.18;99923.28;5073659;28;20520;-73
2024/01/01 09:05:26;;;;;;;3.50;1.33;;;;;;;8.07;92.34;99928.59;5073390;28;20821;-73
2024/01/01 09:07:53;;;;;;;3.73;1.60;;;;;;;8.14;91.09;99920.06;5073607;28;20441;-74
2024/01/01 09:10:20;;;;;;;6.63;1.10;;;;;;;8.12;92.02;99916.91;5073121;28;20473;-74
2024/01/01 09:12:47;;;;;;;3.33;0.90;;;;;;;8.19;91.38;99922.66;5073399;28;20441;-75
2024/01/01 09:15:16;;;;;;;2.17;0.70;;;;;;;8.19;91.02;99919.97;5073138;28;20579;-74
2024/01/01 09:17:43;;;;;;;3.37;1.30;;;;;;;8.25;90.29;99919.56;5073336;28;20422;-73
2024/01/01 09:20:10;;;;;;;2.50;0.97;;;;;;;8.35;88.73;99930.16;5073652;28;20441;-73
2024/01/01 09:22:36;;;;;;;2.77;1.23;;;;;;;8.34;88.47;99928.56;5073870;28;20520;-75
2024/01/01 09:25:03;;;;;;;3.83;1.53;;;;;;;8.31;89.89;99929.16;5073384;28;20874;-74
2024/01/01 09:27:30;;;;;;;2.23;0.80;;;;;;;8.29;89.42;99928.66;5073352;28;20520;-74
2024/01/01 09:29:56;;;;;;;2.10;0.70;;;;;;;8.25;90.02;99922.28;5072848;28;20936;-74
2024/01/01 09:32:24;;;;;;;2.67;0.90;;;;;;;8.27;89.61;99930.84;5073701;28;20532;-74
2024/01/01 09:34:51;;;;;;;2.57;1.07;;;;;;;8.28;89.16;99934.38;5076866;28;20465;-74
2024/01/01 09:37:18;;;;;;;2.57;0.73;;;;;;;8.26;89.11;99931.97;5077677;28;20469;-74
2024/01/01 09:39:44;;;;;;;3.17;0.87;;;;;;;8.32;88.25;99932.63;5077203;28;20532;-74
2024/01/01 09:42:11;;;;;;;2.50;0.83;;;;;;;8.33;87.67;99932.34;5077163;28;20866;-74
2024/01/01 09:44:38;;;;;;;2.27;0.87;;;;;;;8.35;87.33;99921.25;5077218;28;20461;-74
2024/01/01 09:47:06;;;;;;;1.87;0.70;;;;;;;8.30;87.91;99930.25;5076988;28;20433;-74
2024/01/01 09:49:35;;;;;;;3.37;1.30;;;;;;;8.35;87.35;99929.34;5077103;28;20956;-74
2024/01/01 09:52:04;;;;;;;2.20;0.80;;;;;;;8.26;88.25;99931.97;5076964;28;20805;-75
2024/01/01 09:54:31;;;;;;;4.33;1.30;;;;;;;8.18;89.63;99924.56;5077417;28;20489;-75
2024/01/01 09:56:57;;;;;;;3.10;1.10;;;;;;;8.20;88.84;99930.47;5077209;28;20572;-75
2024/01/01 09:59:36;;;;;;;2.27;0.90;;;;;;;8.26;88.14;99936.56;5076970;28;20465;-75
2024/01/01 10:02:05;;;;;;;2.37;1.10;;;;;;;8.23;88.71;99927.16;5077173;28;20441;-74
2024/01/01 10:04:31;;;;;;;2.87;1.00;;;;;;;8.23;88.86;99937.94;5077019;28;20457;-74
2024/01/01 10:07:00;;;;;;;2.13;0.73;;;;;;;8.22;89.01;99930.16;5076719;28;20580;-73
2024/01/01 10:09:27;;;;;;;2.00;0.67;;;;;;;8.23;89.59;99929.84;5076657;28;20433;-74
2024/01/01 10:12:06;;;;;;;2.13;1.00;;;;;;;8.22;89.27;99932.88;5076720;28;20471;-74
2024/01/01 10:14:32;;;;;;;2.93;1.23;;;;;;;8.20;88.99;99925.09;5076975;28;20449;-74
2024/01/01 10:17:11;;;;;;;7.20;1.57;;;;;;;8.27;88.54;99921.97;5076383;28;21005;-73
2024/01/01 10:19:48;;;;;;;3.23;0.83;;;;;;;8.33;87.55;99926.97;5076244;28;20889;-74
2024/01/01 10:22:17;;;;;;;2.70;0.80;;;;;;;8.37;86.91;99929.06;5076583;28;20436;-73
2024/01/01 10:24:43;;;;;;;3.67;1.40;;;;;;;8.41;86.10;99925.50;5076426;28;20472;-74
2024/01/01 10:27:11;;;;;;;3.60;1.13;;;;;;;8.37;86.84;99929.91;5077228;28;20799;-73
2024/01/01 10:29:38;;;;;;;4.70;1.37;;;;;;;8.35;87.97;99922.06;5077699;28;20944;-73
2024/01/01 10:32:06;;;;;;;3.00;1.43;;;;;;;8.37;88.08;99918.28;5077668;28;20527;-73
2024/01/01 10:34:36;;;;;;;2.10;0.70;;;;;;;8.42;86.63;99928.97;5077329;28;20548;-72
2024/01/01 10:37:03;;;;;;;1.60;0.37;;;;;;;8.43;86.36;99922.47;5077017;28;20559;-74
2024/01/01 10:39:35;;;;;;;3.40;0.83;;;;;;;8.46;86.73;99929.97;5076633;28;20532;-74
2024/01/01 10:42:02;;;;;;;2.43;0.80;;;;;;;8.46;87.11;99924.59;5076306;28;20905;-74
2024/01/01 10:44:29;;;;;;;3.57;1.23;;;;;;;8.48;87.68;99927.75;5076390;28;20464;-74
2024/01/01 10:46:58;;;;;;;2.53;0.93;;;;;;;8.50;86.90;99930.94;5075491;28;20464;-74
2024/01/01 10:49:29;;;;;;;1.97;0.67;;;;;;;8.51;88.37;99932.56;5076265;28;20442;-74
2024/01/01 10:52:11;;;;;;;4.83;1.20;;;;;;;8.54;86.64;99930.06;5076210;28;20421;-74
2024/01/01 10:55:00;;;;;;;2.33;0.83;;;;;;;8.51;87.90;99932.56;5075691;28;20828;-74
2024/01/01 10:57:53;;;;;;;2.90;1.13;;;;;;;8.57;87.24;99937.53;5076306;28;20500;-74
2024/01/01 11:00:28;;;;;;;2.40;0.97;;;;;;;8.57;87.30;99931.34;5073447;28;20843;-73
2024/01/01 11:02:56;;;;;;;3.47;1.20;;;;;;;8.59;87.49;99935.34;5075737;28;20422;-73
2024/01/01 11:05:32;;;;;;;1.80;0.60;;;;;;;8.64;86.08;99936.34;5075316;28;20464;-73
2024/01/01 11:08:00;;;;;;;3.07;1.43;;;;;;;8.64;85.70;99931.72;5076023;28;20425;-71
2024/01/01 11:10:59;;;;;;;2.63;1.03;;;;;;;8.54;88.15;99927.38;5075569;28;20452;-75
2024/01/01 11:13:55;;;;;;;6.03;1.03;;;;;;;8.55;88.63;99922.75;5075259;28;20540;-74
2024/01/01 11:16:23;;;;;;;4.10;0.90;;;;;;;8.62;87.33;99927.72;5075357;28;20484;-74
2024/01/01 11:18:50;;;;;;;2.17;0.70;;;;;;;8.61;87.11;99926.94;5057185;28;20438;-75
2024/01/01 11:21:28;;;;;;;1.70;0.50;;;;;;;8.65;87.34;99919.81;5075539;28;20874;-74
2024/01/01 11:23:56;;;;;;;2.63;0.80;;;;;;;8.62;88.13;99923.13;5075302;28;20603;-75
2024/01/01 11:26:30;;;;;;;4.20;0.97;;;;;;;8.54;89.94;99913.88;5075744;28;20444;-75
2024/01/01 11:28:58;;;;;;;3.50;0.70;;;;;;;8.57;89.26;99921.34;5075343;28;20514;-75
2024/01/01 11:31:26;;;;;;;2.40;0.73;;;;;;;8.56;89.71;99919.75;5075237;28;20525;-75
2024/01/01 11:34:06;;;;;;;2.20;0.90;;;;;;;8.59;89.88;99921.06;5075075;28;20461;-75
2024/01/01 11:36:34;;;;;;;2.33;1.10;;;;;;;8.53;91.95;99927.66;5075186;28;20497;-75